createdAt,value
2022-08-26T00:00:58.114Z,1002.23
2022-08-26T00:01:58.131Z,1002.23
2022-08-26T00:02:59.124Z,1002.23
2022-08-26T00:03:58.114Z,1002.23
2022-08-26T00:04:58.090Z,1002.23
2022-08-26T00:05:58.214Z,1002.23
2022-08-26T00:06:58.198Z,1002.23
2022-08-26T00:07:58.151Z,1002.23
2022-08-26T00:08:58.354Z,1002.23
2022-08-26T00:09:59.756Z,1002.31
2022-08-26T00:11:02.066Z,1002.31
2022-08-26T00:11:58.603Z,1002.29
2022-08-26T00:12:57.900Z,1002.25
2022-08-26T00:13:59.399Z,1002.28
2022-08-26T00:14:58.410Z,1002.28
2022-08-26T00:15:58.751Z,1002.28
2022-08-26T00:16:58.043Z,1002.28
2022-08-26T00:17:58.259Z,1002.33
2022-08-26T00:18:58.657Z,1002.32
2022-08-26T00:19:57.955Z,1002.29
2022-08-26T00:20:58.337Z,1002.32
2022-08-26T00:21:58.625Z,1002.29
2022-08-26T00:22:58.116Z,1002.31
2022-08-26T00:23:58.107Z,1002.29
2022-08-26T00:24:58.174Z,1002.29
2022-08-26T00:26:00.031Z,1002.26
2022-08-26T00:26:58.254Z,1002.31
2022-08-26T00:27:59.140Z,1002.24
2022-08-26T00:28:58.122Z,1002.27
2022-08-26T00:29:59.118Z,1002.26
2022-08-26T00:30:58.106Z,1002.24
2022-08-26T00:31:58.150Z,1002.27
2022-08-26T00:32:59.099Z,1002.22
2022-08-26T00:33:59.142Z,1002.22
2022-08-26T00:34:58.424Z,1002.22
2022-08-26T00:35:58.187Z,1002.21
2022-08-26T00:36:58.096Z,1002.21
2022-08-26T00:37:58.221Z,1002.19
2022-08-26T00:38:58.436Z,1002.19
2022-08-26T00:40:05.119Z,1002.24
2022-08-26T00:40:58.120Z,1002.24
2022-08-26T00:41:58.410Z,1002.2
2022-08-26T00:42:58.717Z,1002.23
2022-08-26T00:44:02.245Z,1002.23
2022-08-26T00:44:58.259Z,1002.21
2022-08-26T00:45:59.364Z,1002.24
2022-08-26T00:46:59.756Z,1002.25
2022-08-26T00:47:58.770Z,1002.21
2022-08-26T00:48:58.310Z,1002.21
2022-08-26T00:49:58.675Z,1002.22
2022-08-26T00:50:58.916Z,1002.23
2022-08-26T00:51:58.198Z,1002.21
2022-08-26T00:52:58.535Z,1002.23
2022-08-26T00:54:00.875Z,1002.2
2022-08-26T00:54:58.092Z,1002.2
2022-08-26T00:55:58.438Z,1002.2
2022-08-26T00:57:01.763Z,1002.22
2022-08-26T00:57:58.350Z,1002.2
2022-08-26T00:58:58.726Z,1002.22
2022-08-26T00:59:58.535Z,1002.22
2022-08-26T01:00:58.902Z,1002.24
2022-08-26T01:01:59.588Z,1002.24
2022-08-26T01:02:58.796Z,1002.27
2022-08-26T01:04:00.843Z,1002.27
2022-08-26T01:04:59.430Z,1002.25
2022-08-26T01:05:58.533Z,1002.25
2022-08-26T01:06:58.454Z,1002.26
2022-08-26T01:07:58.627Z,1002.27
2022-08-26T01:08:58.321Z,1002.27
2022-08-26T01:09:58.638Z,1002.23
2022-08-26T01:10:58.147Z,1002.22
2022-08-26T01:11:58.205Z,1002.23
2022-08-26T01:12:58.262Z,1002.25
2022-08-26T01:13:58.373Z,1002.27
2022-08-26T01:14:59.141Z,1002.25
2022-08-26T01:15:58.309Z,1002.25
2022-08-26T01:16:59.341Z,1002.25
2022-08-26T01:17:58.326Z,1002.25
2022-08-26T01:18:58.167Z,1002.26
2022-08-26T01:19:58.575Z,1002.29
2022-08-26T01:21:01.279Z,1002.29
2022-08-26T01:21:59.115Z,1002.32
2022-08-26T01:22:58.105Z,1002.28
2022-08-26T01:24:01.440Z,1002.29
2022-08-26T01:24:59.115Z,1002.25
2022-08-26T01:25:58.094Z,1002.26
2022-08-26T01:26:58.140Z,1002.28
2022-08-26T01:28:01.227Z,1002.31
2022-08-26T01:28:58.141Z,1002.25
2022-08-26T01:29:58.127Z,1002.26
2022-08-26T01:30:58.101Z,1002.29
2022-08-26T01:31:58.219Z,1002.21
2022-08-26T01:32:58.098Z,1002.23
2022-08-26T01:33:59.161Z,1002.24
2022-08-26T01:34:58.112Z,1002.21
2022-08-26T01:35:58.109Z,1002.22
2022-08-26T01:36:58.169Z,1002.22
2022-08-26T01:37:58.107Z,1002.22
2022-08-26T01:38:58.137Z,1002.2
2022-08-26T01:39:59.276Z,1002.24
2022-08-26T01:40:59.121Z,1002.25
2022-08-26T01:42:03.114Z,1002.23
2022-08-26T01:42:58.101Z,1002.26
2022-08-26T01:43:58.139Z,1002.27
2022-08-26T01:44:59.098Z,1002.2
2022-08-26T01:45:58.163Z,1002.22
2022-08-26T01:46:58.183Z,1002.27
2022-08-26T01:48:02.118Z,1002.26
2022-08-26T01:48:58.103Z,1002.24
2022-08-26T01:49:58.185Z,1002.24
2022-08-26T01:50:58.130Z,1002.27
2022-08-26T01:51:59.341Z,1002.29
2022-08-26T01:52:58.116Z,1002.29
2022-08-26T01:54:01.143Z,1002.3
2022-08-26T01:54:58.133Z,1002.33
2022-08-26T01:55:58.127Z,1002.29
2022-08-26T01:56:59.104Z,1002.31
2022-08-26T01:57:59.127Z,1002.31
2022-08-26T01:58:59.182Z,1002.3
2022-08-26T01:59:58.116Z,1002.31
2022-08-26T02:00:58.165Z,1002.29
2022-08-26T02:01:58.246Z,1002.3
2022-08-26T02:02:58.109Z,1002.32
2022-08-26T02:03:58.112Z,1002.32
2022-08-26T02:04:58.208Z,1002.31
2022-08-26T02:05:58.145Z,1002.32
2022-08-26T02:07:02.284Z,1002.34
2022-08-26T02:07:58.129Z,1002.31
2022-08-26T02:08:58.127Z,1002.32
2022-08-26T02:09:58.123Z,1002.31
2022-08-26T02:10:58.156Z,1002.29
2022-08-26T02:11:58.123Z,1002.29
2022-08-26T02:12:59.130Z,1002.3
2022-08-26T02:13:59.112Z,1002.31
2022-08-26T02:14:58.112Z,1002.32
2022-08-26T02:15:58.185Z,1002.3
2022-08-26T02:16:58.113Z,1002.32
2022-08-26T02:18:01.115Z,1002.33
2022-08-26T02:18:58.112Z,1002.31
2022-08-26T02:19:58.112Z,1002.32
2022-08-26T02:20:58.151Z,1002.32
2022-08-26T02:21:58.115Z,1002.31
2022-08-26T02:22:59.119Z,1002.34
2022-08-26T02:23:59.119Z,1002.29
2022-08-26T02:24:58.093Z,1002.3
2022-08-26T02:25:58.169Z,1002.34
2022-08-26T02:26:59.080Z,1002.29
2022-08-26T02:27:59.209Z,1002.28
2022-08-26T02:28:58.127Z,1002.3
2022-08-26T02:29:58.400Z,1002.27
2022-08-26T02:30:58.123Z,1002.28
2022-08-26T02:31:58.101Z,1002.3
2022-08-26T02:32:59.627Z,1002.31
2022-08-26T02:33:59.134Z,1002.32
2022-08-26T02:34:58.194Z,1002.29
2022-08-26T02:35:58.196Z,1002.33
2022-08-26T02:36:58.461Z,1002.34
2022-08-26T02:37:59.120Z,1002.37
2022-08-26T02:38:58.255Z,1002.38
2022-08-26T02:39:58.527Z,1002.41
2022-08-26T02:40:58.125Z,1002.44
2022-08-26T02:41:58.130Z,1002.49
2022-08-26T02:43:02.370Z,1002.58
2022-08-26T02:43:59.525Z,1002.64
2022-08-26T02:44:59.137Z,1002.66
2022-08-26T02:45:58.209Z,1002.55
2022-08-26T02:46:58.122Z,1002.51
2022-08-26T02:48:00.668Z,1002.6
2022-08-26T02:48:58.131Z,1002.65
2022-08-26T02:49:58.116Z,1002.63
2022-08-26T02:50:59.119Z,1002.55
2022-08-26T02:51:58.114Z,1002.56
2022-08-26T02:52:58.118Z,1002.55
2022-08-26T02:53:58.102Z,1002.6
2022-08-26T02:54:58.124Z,1002.58
2022-08-26T02:56:01.123Z,1002.53
2022-08-26T02:56:58.259Z,1002.6
2022-08-26T02:57:58.110Z,1002.67
2022-08-26T02:58:58.136Z,1002.62
2022-08-26T03:00:01.231Z,1002.63
2022-08-26T03:00:58.162Z,1002.59
2022-08-26T03:01:59.137Z,1002.54
2022-08-26T03:02:58.126Z,1002.52
2022-08-26T03:03:58.149Z,1002.53
2022-08-26T03:05:04.182Z,1002.57
2022-08-26T03:05:58.125Z,1002.55
2022-08-26T03:06:58.227Z,1002.55
2022-08-26T03:08:01.129Z,1002.54
2022-08-26T03:08:59.260Z,1002.5
2022-08-26T03:09:58.123Z,1002.56
2022-08-26T03:10:58.108Z,1002.51
2022-08-26T03:11:58.135Z,1002.48
2022-08-26T03:13:05.028Z,1002.48
2022-08-26T03:13:58.156Z,1002.5
2022-08-26T03:14:59.124Z,1002.52
2022-08-26T03:15:59.155Z,1002.5
2022-08-26T03:16:59.412Z,1002.46
2022-08-26T03:18:01.132Z,1002.43
2022-08-26T03:19:01.185Z,1002.42
2022-08-26T03:20:00.181Z,1002.45
2022-08-26T03:20:58.139Z,1002.49
2022-08-26T03:22:01.131Z,1002.47
2022-08-26T03:22:59.401Z,1002.45
2022-08-26T03:24:02.212Z,1002.44
2022-08-26T03:24:58.164Z,1002.41
2022-08-26T03:25:59.144Z,1002.46
2022-08-26T03:26:58.580Z,1002.44
2022-08-26T03:28:00.198Z,1002.47
2022-08-26T03:28:59.156Z,1002.5
2022-08-26T03:29:58.453Z,1002.51
2022-08-26T03:30:58.747Z,1002.48
2022-08-26T03:31:59.053Z,1002.5
2022-08-26T03:32:58.303Z,1002.48
2022-08-26T03:34:02.678Z,1002.48
2022-08-26T03:34:58.034Z,1002.48
2022-08-26T03:35:58.330Z,1002.5
2022-08-26T03:36:58.662Z,1002.43
2022-08-26T03:37:58.136Z,1002.44
2022-08-26T03:38:58.096Z,1002.45
2022-08-26T03:39:58.117Z,1002.46
2022-08-26T03:40:58.234Z,1002.44
2022-08-26T03:41:58.178Z,1002.42
2022-08-26T03:42:58.108Z,1002.43
2022-08-26T03:44:03.887Z,1002.42
2022-08-26T03:44:58.083Z,1002.43
2022-08-26T03:45:59.106Z,1002.44
2022-08-26T03:46:58.097Z,1002.43
2022-08-26T03:48:03.094Z,1002.43
2022-08-26T03:48:58.364Z,1002.42
2022-08-26T03:49:58.449Z,1002.42
2022-08-26T03:50:59.428Z,1002.42
2022-08-26T03:51:58.217Z,1002.43
2022-08-26T03:52:58.334Z,1002.4
2022-08-26T03:53:59.372Z,1002.37
2022-08-26T03:54:58.637Z,1002.38
2022-08-26T03:55:59.197Z,1002.44
2022-08-26T03:56:58.474Z,1002.42
2022-08-26T03:57:58.656Z,1002.37
2022-08-26T03:58:58.122Z,1002.42
2022-08-26T03:59:58.289Z,1002.39
2022-08-26T04:00:58.121Z,1002.39
2022-08-26T04:01:58.408Z,1002.44
2022-08-26T04:02:58.227Z,1002.45
2022-08-26T04:04:01.131Z,1002.47
2022-08-26T04:04:58.092Z,1002.43
2022-08-26T04:05:58.116Z,1002.4
2022-08-26T04:06:58.114Z,1002.39
2022-08-26T04:07:59.105Z,1002.4
2022-08-26T04:08:58.173Z,1002.4
2022-08-26T04:09:58.231Z,1002.41
2022-08-26T04:10:58.241Z,1002.41
2022-08-26T04:11:59.153Z,1002.41
2022-08-26T04:13:02.344Z,1002.43
2022-08-26T04:14:01.118Z,1002.41
2022-08-26T04:15:01.120Z,1002.44
2022-08-26T04:15:58.449Z,1002.45
2022-08-26T04:16:58.424Z,1002.44
2022-08-26T04:17:59.779Z,1002.47
2022-08-26T04:18:58.266Z,1002.44
2022-08-26T04:19:58.535Z,1002.41
2022-08-26T04:20:58.565Z,1002.48
2022-08-26T04:21:59.580Z,1002.5
2022-08-26T04:22:59.703Z,1002.49
2022-08-26T04:23:59.464Z,1002.49
2022-08-26T04:24:59.753Z,1002.51
2022-08-26T04:25:58.487Z,1002.47
2022-08-26T04:26:58.761Z,1002.51
2022-08-26T04:27:59.128Z,1002.51
2022-08-26T04:28:58.238Z,1002.5
2022-08-26T04:29:58.259Z,1002.5
2022-08-26T04:30:58.132Z,1002.48
2022-08-26T04:31:58.190Z,1002.51
2022-08-26T04:32:58.198Z,1002.53
2022-08-26T04:33:59.172Z,1002.56
2022-08-26T04:35:02.135Z,1002.54
2022-08-26T04:35:58.113Z,1002.51
2022-08-26T04:36:58.236Z,1002.54
2022-08-26T04:37:58.114Z,1002.55
2022-08-26T04:38:58.123Z,1002.57
2022-08-26T04:39:58.156Z,1002.52
2022-08-26T04:41:01.230Z,1002.58
2022-08-26T04:41:59.127Z,1002.59
2022-08-26T04:42:58.145Z,1002.56
2022-08-26T04:43:59.124Z,1002.56
2022-08-26T04:44:58.118Z,1002.55
2022-08-26T04:45:59.160Z,1002.59
2022-08-26T04:46:58.122Z,1002.58
2022-08-26T04:47:58.087Z,1002.61
2022-08-26T04:48:58.233Z,1002.61
2022-08-26T04:49:59.120Z,1002.62
2022-08-26T04:50:59.113Z,1002.63
2022-08-26T04:51:58.122Z,1002.67
2022-08-26T04:52:58.110Z,1002.63
2022-08-26T04:53:58.154Z,1002.65
2022-08-26T04:54:58.116Z,1002.65
2022-08-26T04:55:59.129Z,1002.61
2022-08-26T04:56:59.144Z,1002.63
2022-08-26T04:57:58.102Z,1002.63
2022-08-26T04:58:58.108Z,1002.61
2022-08-26T04:59:58.108Z,1002.62
2022-08-26T05:00:58.115Z,1002.64
2022-08-26T05:01:58.177Z,1002.68
2022-08-26T05:02:58.167Z,1002.67
2022-08-26T05:03:58.194Z,1002.66
2022-08-26T05:04:58.110Z,1002.68
2022-08-26T05:05:58.115Z,1002.67
2022-08-26T05:07:04.127Z,1002.69
2022-08-26T05:07:59.100Z,1002.69
2022-08-26T05:08:59.127Z,1002.66
2022-08-26T05:09:58.099Z,1002.67
2022-08-26T05:10:58.113Z,1002.69
2022-08-26T05:11:58.117Z,1002.65
2022-08-26T05:12:59.119Z,1002.66
2022-08-26T05:14:04.231Z,1002.67
2022-08-26T05:14:58.112Z,1002.67
2022-08-26T05:16:04.203Z,1002.67
2022-08-26T05:16:58.130Z,1002.67
2022-08-26T05:17:58.105Z,1002.69
2022-08-26T05:18:58.107Z,1002.73
2022-08-26T05:19:58.124Z,1002.71
2022-08-26T05:20:58.104Z,1002.72
2022-08-26T05:21:58.106Z,1002.74
2022-08-26T05:22:58.103Z,1002.72
2022-08-26T05:23:58.112Z,1002.76
2022-08-26T05:24:58.118Z,1002.75
2022-08-26T05:26:05.155Z,1002.76
2022-08-26T05:27:00.210Z,1002.78
2022-08-26T05:27:58.112Z,1002.77
2022-08-26T05:28:58.374Z,1002.79
2022-08-26T05:29:58.118Z,1002.75
2022-08-26T05:30:58.134Z,1002.78
2022-08-26T05:32:00.100Z,1002.8
2022-08-26T05:32:58.102Z,1002.78
2022-08-26T05:33:58.128Z,1002.83
2022-08-26T05:34:59.105Z,1002.8
2022-08-26T05:35:58.240Z,1002.85
2022-08-26T05:36:58.136Z,1002.89
2022-08-26T05:37:58.121Z,1002.89
2022-08-26T05:38:58.108Z,1002.89
2022-08-26T05:39:59.150Z,1002.91
2022-08-26T05:40:58.128Z,1002.92
2022-08-26T05:41:58.128Z,1002.97
2022-08-26T05:42:58.195Z,1002.98
2022-08-26T05:43:58.288Z,1002.97
2022-08-26T05:44:59.272Z,1003.05
2022-08-26T05:45:58.137Z,1003
2022-08-26T05:46:59.128Z,1003.02
2022-08-26T05:47:58.454Z,1003.03
2022-08-26T05:48:58.135Z,1003.07
2022-08-26T05:49:58.334Z,1003.07
2022-08-26T05:50:58.555Z,1003.07
2022-08-26T05:51:58.675Z,1003.06
2022-08-26T05:52:58.094Z,1003.06
2022-08-26T05:53:59.292Z,1003.09
2022-08-26T05:54:58.577Z,1003.11
2022-08-26T05:55:59.112Z,1003.12
2022-08-26T05:56:58.108Z,1003.16
2022-08-26T05:58:00.507Z,1003.12
2022-08-26T05:59:01.115Z,1003.11
2022-08-26T05:59:59.108Z,1003.12
2022-08-26T06:00:58.137Z,1003.13
2022-08-26T06:01:59.419Z,1003.13
2022-08-26T06:02:58.142Z,1003.14
2022-08-26T06:04:03.228Z,1003.23
2022-08-26T06:04:58.113Z,1003.2
2022-08-26T06:05:58.100Z,1003.21
2022-08-26T06:06:58.097Z,1003.14
2022-08-26T06:07:58.108Z,1003.1
2022-08-26T06:08:58.118Z,1003.09
2022-08-26T06:10:28.496Z,1003.1
2022-08-26T06:10:58.118Z,1003.17
2022-08-26T06:11:58.128Z,1003.15
2022-08-26T06:12:58.101Z,1003.14
2022-08-26T06:14:04.470Z,1003.17
2022-08-26T06:14:58.105Z,1003.17
2022-08-26T06:16:00.321Z,1003.17
2022-08-26T06:16:58.100Z,1003.17
2022-08-26T06:17:58.090Z,1003.17
2022-08-26T06:18:58.102Z,1003.2
2022-08-26T06:19:58.112Z,1003.21
2022-08-26T06:21:01.185Z,1003.23
2022-08-26T06:21:58.126Z,1003.21
2022-08-26T06:22:58.114Z,1003.19
2022-08-26T06:24:02.112Z,1003.19
2022-08-26T06:24:58.099Z,1003.22
2022-08-26T06:25:59.109Z,1003.24
2022-08-26T06:26:58.123Z,1003.22
2022-08-26T06:27:58.102Z,1003.27
2022-08-26T06:28:58.108Z,1003.3
2022-08-26T06:29:58.149Z,1003.29
2022-08-26T06:30:58.131Z,1003.29
2022-08-26T06:31:59.129Z,1003.34
2022-08-26T06:32:58.108Z,1003.34
2022-08-26T06:33:58.105Z,1003.32
2022-08-26T06:34:58.097Z,1003.33
2022-08-26T06:36:01.214Z,1003.32
2022-08-26T06:36:59.417Z,1003.33
2022-08-26T06:37:58.132Z,1003.37
2022-08-26T06:38:58.990Z,1003.38
2022-08-26T06:40:00.596Z,1003.4
2022-08-26T06:41:02.938Z,1003.35
2022-08-26T06:41:58.018Z,1003.38
2022-08-26T06:42:58.344Z,1003.36
2022-08-26T06:43:58.662Z,1003.36
2022-08-26T06:44:58.978Z,1003.37
2022-08-26T06:45:58.224Z,1003.38
2022-08-26T06:46:58.595Z,1003.41
2022-08-26T06:47:57.907Z,1003.37
2022-08-26T06:48:58.255Z,1003.37
2022-08-26T06:49:58.530Z,1003.39
2022-08-26T06:50:59.025Z,1003.42
2022-08-26T06:51:59.875Z,1003.42
2022-08-26T06:53:02.352Z,1003.44
2022-08-26T06:53:59.760Z,1003.47
2022-08-26T06:54:58.094Z,1003.47
2022-08-26T06:55:58.101Z,1003.53
2022-08-26T06:56:58.129Z,1003.45
2022-08-26T06:57:58.115Z,1003.5
2022-08-26T06:58:58.092Z,1003.51
2022-08-26T06:59:58.161Z,1003.53
2022-08-26T07:01:09.164Z,1003.54
2022-08-26T07:01:58.164Z,1003.62
2022-08-26T07:02:58.197Z,1003.58
2022-08-26T07:04:01.106Z,1003.6
2022-08-26T07:05:01.103Z,1003.59
2022-08-26T07:06:01.139Z,1003.64
2022-08-26T07:06:58.142Z,1003.61
2022-08-26T07:07:58.110Z,1003.64
2022-08-26T07:08:58.105Z,1003.63
2022-08-26T07:09:59.178Z,1003.61
2022-08-26T07:11:00.115Z,1003.62
2022-08-26T07:11:58.133Z,1003.63
2022-08-26T07:12:59.210Z,1003.63
2022-08-26T07:13:58.101Z,1003.64
2022-08-26T07:15:01.213Z,1003.67
2022-08-26T07:16:05.164Z,1003.64
2022-08-26T07:16:58.129Z,1003.62
2022-08-26T07:17:58.098Z,1003.63
2022-08-26T07:18:59.097Z,1003.66
2022-08-26T07:19:58.087Z,1003.64
2022-08-26T07:21:00.109Z,1003.67
2022-08-26T07:21:58.134Z,1003.65
2022-08-26T07:22:58.104Z,1003.65
2022-08-26T07:24:04.195Z,1003.63
2022-08-26T07:24:58.445Z,1003.66
2022-08-26T07:25:58.238Z,1003.68
2022-08-26T07:26:58.291Z,1003.68
2022-08-26T07:27:58.302Z,1003.69
2022-08-26T07:28:58.121Z,1003.71
2022-08-26T07:29:59.142Z,1003.75
2022-08-26T07:31:01.258Z,1003.73
2022-08-26T07:32:00.495Z,1003.75
2022-08-26T07:32:59.281Z,1003.79
2022-08-26T07:33:58.434Z,1003.84
2022-08-26T07:34:58.394Z,1003.83
2022-08-26T07:35:58.842Z,1003.84
2022-08-26T07:36:59.443Z,1003.88
2022-08-26T07:38:04.379Z,1003.87
2022-08-26T07:38:58.346Z,1003.93
2022-08-26T07:39:58.207Z,1003.95
2022-08-26T07:40:58.090Z,1003.91
2022-08-26T07:41:59.379Z,1003.97
2022-08-26T07:42:58.375Z,1003.94
2022-08-26T07:43:59.241Z,1003.97
2022-08-26T07:44:59.307Z,1003.97
2022-08-26T07:45:58.412Z,1003.95
2022-08-26T07:46:58.094Z,1003.98
2022-08-26T07:47:59.450Z,1003.99
2022-08-26T07:48:58.422Z,1004.02
2022-08-26T07:49:58.121Z,1004
2022-08-26T07:50:58.109Z,1004.02
2022-08-26T07:51:58.105Z,1003.97
2022-08-26T07:52:58.117Z,1004.01
2022-08-26T07:53:58.097Z,1003.97
2022-08-26T07:54:58.219Z,1003.97
2022-08-26T07:55:59.313Z,1003.95
2022-08-26T07:56:59.166Z,1003.94
2022-08-26T07:57:58.093Z,1003.97
2022-08-26T07:58:58.128Z,1003.95
2022-08-26T07:59:58.101Z,1003.99
2022-08-26T08:00:59.096Z,1004
2022-08-26T08:01:58.109Z,1004
2022-08-26T08:02:59.098Z,1004.01
2022-08-26T08:03:58.134Z,1004.01
2022-08-26T08:04:58.276Z,1003.99
2022-08-26T08:05:59.196Z,1003.99
2022-08-26T08:06:59.107Z,1004
2022-08-26T08:08:19.760Z,1003.95
2022-08-26T08:08:58.133Z,1003.91
2022-08-26T08:09:59.110Z,1003.93
2022-08-26T08:10:58.103Z,1003.86
2022-08-26T08:11:58.102Z,1003.9
2022-08-26T08:12:59.094Z,1003.93
2022-08-26T08:13:59.109Z,1003.94
2022-08-26T08:14:58.112Z,1003.94
2022-08-26T08:15:58.241Z,1003.94
2022-08-26T08:16:58.197Z,1003.93
2022-08-26T08:18:05.270Z,1003.96
2022-08-26T08:19:01.210Z,1003.98
2022-08-26T08:19:59.274Z,1003.99
2022-08-26T08:21:19.868Z,1004.02
2022-08-26T08:21:58.103Z,1003.98
2022-08-26T08:22:59.103Z,1004
2022-08-26T08:23:58.096Z,1004.02
2022-08-26T08:24:59.111Z,1003.99
2022-08-26T08:25:58.112Z,1004.05
2022-08-26T08:27:02.219Z,1004.05
2022-08-26T08:27:59.116Z,1004.09
2022-08-26T08:28:58.127Z,1004.07
2022-08-26T08:29:58.092Z,1004.08
2022-08-26T08:30:58.146Z,1004.08
2022-08-26T08:32:01.215Z,1004.1
2022-08-26T08:32:58.096Z,1004.05
2022-08-26T08:33:58.077Z,1004.07
2022-08-26T08:34:58.088Z,1004.09
2022-08-26T08:35:58.089Z,1004.09
2022-08-26T08:36:58.087Z,1004.07
2022-08-26T08:37:58.184Z,1004.07
2022-08-26T08:38:59.104Z,1004.07
2022-08-26T08:39:58.364Z,1004.09
2022-08-26T08:40:58.328Z,1004.05
2022-08-26T08:41:59.115Z,1004.08
2022-08-26T08:42:58.307Z,1004.03
2022-08-26T08:43:58.372Z,1004.05
2022-08-26T08:44:58.157Z,1004.07
2022-08-26T08:45:58.360Z,1004.09
2022-08-26T08:46:59.227Z,1004.11
2022-08-26T08:47:58.534Z,1004.11
2022-08-26T08:48:59.844Z,1004.12
2022-08-26T08:49:58.570Z,1004.09
2022-08-26T08:50:58.896Z,1004.11
2022-08-26T08:51:58.656Z,1004.11
2022-08-26T08:52:59.284Z,1004.11
2022-08-26T08:53:58.418Z,1004.08
2022-08-26T08:54:58.781Z,1004.11
2022-08-26T08:55:58.212Z,1004.03
2022-08-26T08:57:01.309Z,1004.03
2022-08-26T08:58:03.180Z,1004.04
2022-08-26T08:58:59.878Z,1004.01
2022-08-26T08:59:58.293Z,1004.04
2022-08-26T09:00:58.480Z,1004.04
2022-08-26T09:02:00.029Z,1004.01
2022-08-26T09:02:58.296Z,1004
2022-08-26T09:04:01.537Z,1004.04
2022-08-26T09:05:01.771Z,1004.03
2022-08-26T09:05:58.546Z,1004.05
2022-08-26T09:07:58.110Z,1004.05
2022-08-26T09:08:58.223Z,1004.07
2022-08-26T09:09:58.126Z,1004.07
2022-08-26T09:10:59.529Z,1004.05
2022-08-26T09:11:58.316Z,1004.07
2022-08-26T09:12:58.125Z,1004.06
2022-08-26T09:14:01.347Z,1004.05
2022-08-26T09:15:00.687Z,1004.04
2022-08-26T09:15:58.153Z,1004.02
2022-08-26T09:16:59.287Z,1003.97
2022-08-26T09:17:58.098Z,1004.02
2022-08-26T09:18:58.098Z,1004.01
2022-08-26T09:19:58.123Z,1004.02
2022-08-26T09:20:58.097Z,1004.03
2022-08-26T09:21:59.116Z,1004.02
2022-08-26T09:22:58.105Z,1004.02
2022-08-26T09:23:58.194Z,1004.04
2022-08-26T09:24:58.112Z,1004.05
2022-08-26T09:25:58.144Z,1004.01
2022-08-26T09:26:58.116Z,1004.06
2022-08-26T09:28:01.113Z,1004.08
2022-08-26T09:28:58.102Z,1004.03
2022-08-26T09:29:58.109Z,1004.06
2022-08-26T09:30:58.407Z,1004.07
2022-08-26T09:31:58.100Z,1004.11
2022-08-26T09:32:59.123Z,1004.09
2022-08-26T09:33:58.107Z,1004.14
2022-08-26T09:34:58.126Z,1004.11
2022-08-26T09:35:58.133Z,1004.11
2022-08-26T09:36:58.109Z,1004.08
2022-08-26T09:37:58.118Z,1004.14
2022-08-26T09:38:58.121Z,1004.13
2022-08-26T09:39:58.134Z,1004.11
2022-08-26T09:41:01.200Z,1004.1
2022-08-26T09:41:58.111Z,1004.09
2022-08-26T09:42:58.114Z,1004.07
2022-08-26T09:43:58.101Z,1004.09
2022-08-26T09:44:58.114Z,1004.07
2022-08-26T09:46:01.170Z,1004.07
2022-08-26T09:46:59.184Z,1004.07
2022-08-26T09:48:01.412Z,1004.06
2022-08-26T09:49:00.154Z,1004.07
2022-08-26T09:49:58.163Z,1004.1
2022-08-26T09:50:59.223Z,1004.05
2022-08-26T09:51:58.462Z,1004
2022-08-26T09:52:58.735Z,1004.04
2022-08-26T09:53:58.532Z,1004
2022-08-26T09:54:59.495Z,1004.02
2022-08-26T09:55:57.839Z,1004
2022-08-26T09:56:58.131Z,1004.01
2022-08-26T09:58:04.136Z,1004.03
2022-08-26T09:58:58.718Z,1004.02
2022-08-26T09:59:58.138Z,1004.01
2022-08-26T10:01:01.537Z,1003.98
2022-08-26T10:03:00.036Z,1003.98
2022-08-26T10:03:59.255Z,1003.96
2022-08-26T10:05:09.412Z,1003.9
2022-08-26T10:05:58.097Z,1003.92
2022-08-26T10:06:58.146Z,1003.88
2022-08-26T10:08:01.372Z,1003.9
2022-08-26T10:08:58.108Z,1003.87
2022-08-26T10:09:58.117Z,1003.88
2022-08-26T10:10:58.192Z,1003.82
2022-08-26T10:11:58.177Z,1003.81
2022-08-26T10:12:58.098Z,1003.78
2022-08-26T10:13:58.104Z,1003.79
2022-08-26T10:14:58.110Z,1003.79
2022-08-26T10:16:01.115Z,1003.79
2022-08-26T10:16:59.179Z,1003.78
2022-08-26T10:17:58.099Z,1003.82
2022-08-26T10:19:02.126Z,1003.83
2022-08-26T10:19:59.107Z,1003.83
2022-08-26T10:20:59.124Z,1003.81
2022-08-26T10:21:58.150Z,1003.81
2022-08-26T10:22:58.110Z,1003.84
2022-08-26T10:23:58.098Z,1003.79
2022-08-26T10:24:58.227Z,1003.8
2022-08-26T10:26:01.116Z,1003.78
2022-08-26T10:27:00.139Z,1003.79
2022-08-26T10:27:58.123Z,1003.8
2022-08-26T10:28:58.107Z,1003.81
2022-08-26T10:29:58.120Z,1003.78
2022-08-26T10:30:58.252Z,1003.8
2022-08-26T10:32:04.146Z,1003.8
2022-08-26T10:32:58.086Z,1003.81
2022-08-26T10:34:02.099Z,1003.8
2022-08-26T10:34:58.084Z,1003.77
2022-08-26T10:35:58.090Z,1003.77
2022-08-26T10:37:10.879Z,1003.73
2022-08-26T10:37:59.082Z,1003.75
2022-08-26T10:39:01.274Z,1003.75
2022-08-26T10:40:01.141Z,1003.74
2022-08-26T10:40:59.251Z,1003.78
2022-08-26T10:41:58.558Z,1003.76
2022-08-26T10:42:58.493Z,1003.74
2022-08-26T10:43:58.171Z,1003.7
2022-08-26T10:45:01.208Z,1003.68
2022-08-26T10:45:58.641Z,1003.69
2022-08-26T10:46:58.116Z,1003.65
2022-08-26T10:47:58.232Z,1003.7
2022-08-26T10:49:01.376Z,1003.67
2022-08-26T10:50:04.168Z,1003.68
2022-08-26T10:50:59.284Z,1003.67
2022-08-26T10:51:58.452Z,1003.73
2022-08-26T10:52:58.450Z,1003.7
2022-08-26T10:53:58.088Z,1003.72
2022-08-26T10:54:58.392Z,1003.7
2022-08-26T10:55:58.369Z,1003.68
2022-08-26T10:56:58.512Z,1003.69
2022-08-26T10:57:58.238Z,1003.7
2022-08-26T10:58:58.482Z,1003.72
2022-08-26T10:59:58.233Z,1003.72
2022-08-26T11:00:58.139Z,1003.71
2022-08-26T11:01:59.421Z,1003.71
2022-08-26T11:03:00.125Z,1003.7
2022-08-26T11:04:01.560Z,1003.73
2022-08-26T11:04:59.124Z,1003.7
2022-08-26T11:05:59.098Z,1003.67
2022-08-26T11:06:59.102Z,1003.69
2022-08-26T11:07:59.108Z,1003.75
2022-08-26T11:08:58.121Z,1003.73
2022-08-26T11:09:58.094Z,1003.72
2022-08-26T11:11:01.139Z,1003.73
2022-08-26T11:11:58.098Z,1003.74
2022-08-26T11:12:58.097Z,1003.74
2022-08-26T11:13:58.109Z,1003.72
2022-08-26T11:15:01.123Z,1003.74
2022-08-26T11:15:58.127Z,1003.7
2022-08-26T11:16:59.165Z,1003.72
2022-08-26T11:17:58.133Z,1003.7
2022-08-26T11:18:58.115Z,1003.66
2022-08-26T11:20:09.321Z,1003.66
2022-08-26T11:20:58.127Z,1003.62
2022-08-26T11:21:58.097Z,1003.58
2022-08-26T11:23:01.109Z,1003.59
2022-08-26T11:23:58.119Z,1003.6
2022-08-26T11:24:58.109Z,1003.6
2022-08-26T11:26:00.111Z,1003.57
2022-08-26T11:26:59.223Z,1003.57
2022-08-26T11:27:58.110Z,1003.58
2022-08-26T11:28:58.110Z,1003.58
2022-08-26T11:29:59.245Z,1003.58
2022-08-26T11:31:01.117Z,1003.58
2022-08-26T11:31:58.125Z,1003.61
2022-08-26T11:32:58.114Z,1003.57
2022-08-26T11:33:58.105Z,1003.56
2022-08-26T11:35:01.108Z,1003.56
2022-08-26T11:35:58.107Z,1003.57
2022-08-26T11:36:59.100Z,1003.52
2022-08-26T11:37:58.104Z,1003.53
2022-08-26T11:38:58.102Z,1003.57
2022-08-26T11:40:01.169Z,1003.53
2022-08-26T11:40:58.098Z,1003.52
2022-08-26T11:41:59.102Z,1003.5
2022-08-26T11:43:01.084Z,1003.46
2022-08-26T11:44:02.183Z,1003.5
2022-08-26T11:45:07.150Z,1003.47
2022-08-26T11:45:58.250Z,1003.5
2022-08-26T11:46:58.168Z,1003.54
2022-08-26T11:47:58.497Z,1003.58
2022-08-26T11:48:59.337Z,1003.53
2022-08-26T11:50:00.466Z,1003.54
2022-08-26T11:50:59.282Z,1003.48
2022-08-26T11:51:58.178Z,1003.52
2022-08-26T11:52:58.265Z,1003.51
2022-08-26T11:54:01.187Z,1003.48
2022-08-26T11:54:59.494Z,1003.45
2022-08-26T11:55:59.541Z,1003.41
2022-08-26T11:56:58.742Z,1003.45
2022-08-26T11:57:58.342Z,1003.52
2022-08-26T11:58:59.369Z,1003.44
2022-08-26T11:59:58.304Z,1003.44
2022-08-26T12:00:58.633Z,1003.42
2022-08-26T12:01:59.531Z,1003.41
2022-08-26T12:02:58.765Z,1003.42
2022-08-26T12:04:01.777Z,1003.39
2022-08-26T12:04:59.366Z,1003.37
2022-08-26T12:05:59.327Z,1003.36
2022-08-26T12:06:58.107Z,1003.35
2022-08-26T12:07:59.354Z,1003.35
2022-08-26T12:08:59.635Z,1003.33
2022-08-26T12:10:03.345Z,1003.33
2022-08-26T12:10:59.049Z,1003.35